Bowling Green Warren County Regional Airport
KBWG : now visible

Airfield :











YOU CAN JOIN US ON...

 
LOGIN :

Register | Disclaimer

   EN    FR    IT 

 









Legend :    VFR   Marginal VFR   IFR   Intensive IFR   Very Intensive IFR
Visi :
Ceiling :
>= 8 km
>= 3000ft
5 to 8 km
1000 to 3000 ft
1500m to 5 km
500 to 1000 ft
800 to 1500m
200 to 500 ft
< 800m
< 200 ft
Symbols :   Thunderstorms  Fog  Heavy snow  Heavy precipitations  Wind > 20 kt







- Airport Elevation : 547 ft


KBWG - Bowling Green Warren County Regional

CURRENT METAR :
  • 210653Z AUTO 21004KT 10SM CLR 23/21 A2999 RMK AO2 SLP148 T02330211

EXPIRED METARs :
  • 210553Z AUTO 00000KT 10SM CLR 23/21 A2998 RMK AO2 SLP145 60008 T02330211 10328 20228 403390228 56011
  • 210453Z AUTO 09005KT 10SM CLR 23/21 A3000 RMK AO2 SLP151 T02330211

TAF KBWG
Valid from the 21 at 06:00 until the 22 at 06:00 UTC


210521Z 2106/2206 VRB03KT P6SM SCT250
FM211300 24005KT P6SM SCT035
FM211700 20007KT P6SM SCT040 BKN100
PROB30 2117/2123 4SM -TSRA BKN040CB
KZME FIR / North America



MET'MAP, your aeronautical weather chart ! - Copyright ORBIFLY December 2007 - Disclaimer

ORBIFLY MET'MAP TEAM :

Programming & Development : Alexandra Zaïnal
Concept & Development : Baudouin d'Aumeries
Co-Development & Prog : Marc-Olivier Méhu
Technical & hardware support : Manuel Goepfert

Contact : metmap@orbifly.com




SOURCES & CREDITS :

   NOAA       Earth
Advisory